createdAt,value
2022-11-25T00:00:32.227Z,6.30
2022-11-25T00:05:56.216Z,4.55
2022-11-25T00:11:25.254Z,6.30
2022-11-25T00:16:50.431Z,6.20
2022-11-25T00:22:15.277Z,9.45
2022-11-25T00:27:42.271Z,5.53
2022-11-25T00:33:07.247Z,5.13
2022-11-25T00:38:25.265Z,5.05
2022-11-25T00:44:05.261Z,5.03
2022-11-25T00:49:30.263Z,4.38
2022-11-25T00:54:54.259Z,5.47
2022-11-25T01:00:23.278Z,11.13
2022-11-25T01:05:48.378Z,6.70
2022-11-25T01:11:16.304Z,7.13
2022-11-25T01:16:43.310Z,5.28
2022-11-25T01:22:14.301Z,8.75
2022-11-25T01:27:39.304Z,6.53
2022-11-25T01:33:06.273Z,6.60
2022-11-25T01:38:31.315Z,6.00
2022-11-25T01:43:56.288Z,6.68
2022-11-25T01:49:27.297Z,6.60
2022-11-25T01:54:56.277Z,6.93
2022-11-25T02:00:23.282Z,8.88
2022-11-25T02:05:58.288Z,5.28
2022-11-25T02:11:31.319Z,5.85
2022-11-25T02:16:56.395Z,8.57
2022-11-25T02:22:30.290Z,6.40
2022-11-25T02:28:01.297Z,9.10
2022-11-25T02:33:28.800Z,5.55
2022-11-25T02:38:57.322Z,8.60
2022-11-25T02:44:27.299Z,9.32
2022-11-25T02:49:52.311Z,8.73
2022-11-25T02:55:17.381Z,9.20
2022-11-25T03:00:45.401Z,9.27
2022-11-25T03:06:10.363Z,9.85
2022-11-25T03:11:54.303Z,9.73
2022-11-25T03:17:22.330Z,11.70
2022-11-25T03:22:46.362Z,8.82
2022-11-25T03:28:12.375Z,9.77
2022-11-25T03:33:40.300Z,9.93
2022-11-25T03:39:05.320Z,10.88
2022-11-25T03:44:29.316Z,10.48
2022-11-25T03:49:57.345Z,10.48
2022-11-25T03:55:23.374Z,10.18
2022-11-25T04:00:49.385Z,7.25
2022-11-25T04:06:16.383Z,8.48
2022-11-25T04:11:56.348Z,12.93
2022-11-25T04:17:30.453Z,12.07
2022-11-25T04:22:58.346Z,9.23
2022-11-25T04:28:24.482Z,11.88
2022-11-25T04:33:52.530Z,10.50
2022-11-25T04:39:20.355Z,11.40
2022-11-25T04:45:14.183Z,12.90
2022-11-25T04:50:36.378Z,11.77
2022-11-25T04:56:07.464Z,10.93
2022-11-25T05:01:34.522Z,10.50
2022-11-25T05:07:14.459Z,10.75
2022-11-25T05:12:50.433Z,12.45
2022-11-25T05:18:15.373Z,15.95
2022-11-25T05:23:39.464Z,13.25
2022-11-25T05:29:07.393Z,12.98
2022-11-25T05:34:32.833Z,12.57
2022-11-25T05:39:59.391Z,12.05
2022-11-25T05:45:27.376Z,12.38
2022-11-25T05:50:52.398Z,12.95
2022-11-25T05:56:20.451Z,18.45
2022-11-25T06:02:14.466Z,16.65
2022-11-25T06:07:38.463Z,13.77
2022-11-25T06:13:03.416Z,12.75
2022-11-25T06:18:33.389Z,13.15
2022-11-25T06:23:59.383Z,11.15
2022-11-25T06:29:24.386Z,11.30
2022-11-25T06:34:52.409Z,12.07
2022-11-25T06:40:43.394Z,12.13
2022-11-25T06:46:13.485Z,11.60
2022-11-25T06:51:47.405Z,10.27
2022-11-25T06:57:12.404Z,13.15
2022-11-25T07:02:42.887Z,13.70
2022-11-25T07:08:13.447Z,11.88
2022-11-25T07:13:38.543Z,10.55
2022-11-25T07:19:03.555Z,11.20
2022-11-25T07:24:32.589Z,8.50
2022-11-25T07:30:41.205Z,12.13
2022-11-25T07:35:42.400Z,8.52
2022-11-25T07:41:16.413Z,8.07
2022-11-25T07:46:43.497Z,8.05
2022-11-25T07:52:09.449Z,7.70
2022-11-25T07:57:36.465Z,5.55
2022-11-25T08:03:01.838Z,5.97
2022-11-25T08:08:26.437Z,7.35
2022-11-25T08:13:54.468Z,7.07
2022-11-25T08:19:21.946Z,7.13
2022-11-25T08:24:48.442Z,5.35
2022-11-25T08:30:16.816Z,5.93
2022-11-25T08:35:44.489Z,5.25
2022-11-25T08:41:09.453Z,3.65
2022-11-25T08:46:40.606Z,6.82
2022-11-25T08:52:06.276Z,6.13
2022-11-25T08:57:31.482Z,5.63
2022-11-25T09:02:58.532Z,4.70
2022-11-25T09:08:24.464Z,5.85
2022-11-25T09:13:51.085Z,4.72
2022-11-25T09:19:18.474Z,4.25
2022-11-25T09:24:42.479Z,4.40
2022-11-25T09:30:07.530Z,4.45
2022-11-25T09:35:35.464Z,4.45
2022-11-25T09:41:05.613Z,4.00
2022-11-25T09:46:53.526Z,3.72
2022-11-25T09:52:31.487Z,5.30
2022-11-25T09:58:10.483Z,4.28
2022-11-25T10:03:42.577Z,6.35
2022-11-25T10:09:13.520Z,3.97
2022-11-25T10:14:45.485Z,2.90
2022-11-25T10:20:19.737Z,4.13
2022-11-25T10:25:49.567Z,4.80
2022-11-25T10:31:20.585Z,3.50
2022-11-25T10:36:50.484Z,3.30
2022-11-25T10:42:20.512Z,3.10
2022-11-25T10:47:54.603Z,4.75
2022-11-25T10:53:28.666Z,3.83
2022-11-25T10:58:56.525Z,3.85
2022-11-25T11:04:27.517Z,3.20
2022-11-25T11:09:52.634Z,4.17
2022-11-25T11:15:36.524Z,4.45
2022-11-25T11:21:04.940Z,3.20
2022-11-25T11:26:38.553Z,3.05
2022-11-25T11:32:09.520Z,3.70
2022-11-25T11:37:50.524Z,2.30
2022-11-25T11:43:45.532Z,4.33
2022-11-25T11:49:30.592Z,2.65
2022-11-25T11:55:01.518Z,2.35
2022-11-25T12:00:35.553Z,3.87
2022-11-25T12:06:06.838Z,4.05
2022-11-25T12:11:36.570Z,3.43
2022-11-25T12:17:07.554Z,3.15
2022-11-25T12:22:42.930Z,4.13
2022-11-25T12:28:11.536Z,4.28
2022-11-25T12:33:43.567Z,4.38
2022-11-25T12:39:15.594Z,4.80
2022-11-25T12:44:46.609Z,4.20
2022-11-25T12:50:11.567Z,2.77
2022-11-25T12:55:40.602Z,2.50
2022-11-25T13:01:38.971Z,2.92
2022-11-25T13:07:20.625Z,2.25
2022-11-25T13:18:27.600Z,4.35
2022-11-25T13:24:02.612Z,4.30
2022-11-25T13:30:11.586Z,4.68
2022-11-25T13:36:02.634Z,5.72
2022-11-25T13:41:46.621Z,2.95
2022-11-25T13:47:14.295Z,2.75
2022-11-25T13:52:56.590Z,4.80
2022-11-25T13:58:42.599Z,3.95
2022-11-25T14:04:09.659Z,2.38
2022-11-25T14:09:53.670Z,3.25
2022-11-25T14:15:52.644Z,2.67
2022-11-25T14:21:22.624Z,2.55
2022-11-25T14:26:52.633Z,3.03
2022-11-25T14:32:22.605Z,5.18
2022-11-25T14:37:53.622Z,4.57
2022-11-25T14:43:27.610Z,4.60
2022-11-25T14:48:53.775Z,4.80
2022-11-25T14:54:19.642Z,3.85
2022-11-25T14:59:48.691Z,6.10
2022-11-25T15:05:33.645Z,6.18
2022-11-25T15:11:02.639Z,7.25
2022-11-25T15:16:33.728Z,4.25
2022-11-25T15:22:23.191Z,6.70
2022-11-25T15:27:48.669Z,4.45
2022-11-25T15:33:20.670Z,5.45
2022-11-25T15:38:53.923Z,3.60
2022-11-25T15:44:28.654Z,4.07
2022-11-25T15:49:55.652Z,4.68
2022-11-25T15:55:29.758Z,6.05
2022-11-25T16:00:54.712Z,3.40
2022-11-25T16:06:33.664Z,3.60
2022-11-25T16:12:04.730Z,6.40
2022-11-25T16:17:29.660Z,5.43
2022-11-25T16:22:56.641Z,4.68
2022-11-25T16:28:28.677Z,4.60
2022-11-25T16:33:52.661Z,5.82
2022-11-25T16:39:20.700Z,5.32
2022-11-25T16:44:46.711Z,6.68
2022-11-25T16:50:14.250Z,5.53
2022-11-25T16:55:42.805Z,5.43
2022-11-25T17:01:07.686Z,4.57
2022-11-25T17:06:34.693Z,2.92
2022-11-25T17:12:08.703Z,3.67
2022-11-25T17:17:35.899Z,4.10
2022-11-25T17:22:59.712Z,3.05
2022-11-25T17:28:30.674Z,3.53
2022-11-25T17:33:55.715Z,5.40
2022-11-25T17:39:21.718Z,4.72
2022-11-25T17:44:54.086Z,6.63
2022-11-25T17:50:30.697Z,7.65
2022-11-25T17:55:57.734Z,5.93
2022-11-25T18:01:25.822Z,5.82
2022-11-25T18:06:49.730Z,5.05
2022-11-25T18:12:30.235Z,10.13
2022-11-25T18:17:58.724Z,8.93
2022-11-25T18:23:25.858Z,7.40
2022-11-25T18:28:50.759Z,6.93
2022-11-25T18:34:17.759Z,6.65
2022-11-25T18:39:42.713Z,6.50
2022-11-25T18:45:07.743Z,6.85
2022-11-25T18:50:36.918Z,5.43
2022-11-25T18:56:02.724Z,3.72
2022-11-25T19:01:28.815Z,5.30
2022-11-25T19:06:55.760Z,4.93
2022-11-25T19:12:26.720Z,3.25
2022-11-25T19:17:50.741Z,4.40
2022-11-25T19:23:28.768Z,4.32
2022-11-25T19:28:52.771Z,4.25
2022-11-25T19:34:22.780Z,6.70
2022-11-25T19:39:51.946Z,4.28
2022-11-25T19:45:19.777Z,3.30
2022-11-25T19:50:44.924Z,5.22
2022-11-25T19:56:12.781Z,4.47
2022-11-25T20:01:42.826Z,6.55
2022-11-25T20:07:07.796Z,6.63
2022-11-25T20:12:42.775Z,5.40
2022-11-25T20:18:13.748Z,4.70
2022-11-25T20:23:44.555Z,3.75
2022-11-25T20:29:19.782Z,4.07
2022-11-25T20:34:47.615Z,4.00
2022-11-25T20:40:14.461Z,6.78
2022-11-25T20:45:41.888Z,5.53
2022-11-25T20:51:09.803Z,4.90
2022-11-25T20:56:36.771Z,6.85
2022-11-25T21:02:04.824Z,8.40
2022-11-25T21:07:30.847Z,5.90
2022-11-25T21:13:02.797Z,5.88
2022-11-25T21:18:30.838Z,6.97
2022-11-25T21:23:54.798Z,4.97
2022-11-25T21:29:23.787Z,8.63
2022-11-25T21:34:50.818Z,4.90
2022-11-25T21:40:24.837Z,6.18
2022-11-25T21:45:48.855Z,5.95
2022-11-25T21:51:18.830Z,5.90
2022-11-25T21:56:46.836Z,5.82
2022-11-25T22:02:11.836Z,7.55
2022-11-25T22:07:38.869Z,7.45
2022-11-25T22:13:10.815Z,5.53
2022-11-25T22:24:04.862Z,8.73
2022-11-25T22:29:32.849Z,6.75
2022-11-25T22:34:57.860Z,6.80
2022-11-25T22:40:31.858Z,7.32
2022-11-25T22:45:56.907Z,6.75
2022-11-25T22:51:21.863Z,6.40
2022-11-25T22:56:49.852Z,4.65
2022-11-25T23:02:13.886Z,8.50
2022-11-25T23:07:39.021Z,6.43
2022-11-25T23:13:12.820Z,7.22
2022-11-25T23:18:41.832Z,8.73
2022-11-25T23:24:07.009Z,6.03
2022-11-25T23:29:34.859Z,8.07
2022-11-25T23:34:59.923Z,9.43
2022-11-25T23:40:30.180Z,6.43
2022-11-25T23:46:03.226Z,7.50
2022-11-25T23:51:27.860Z,8.70
2022-11-25T23:56:52.881Z,9.30
